San Diego, CA (92101)

1:28 AM PDT on November 01, 2014 (GMT -0700)
Embarcadero North | Change Station
CLOSE
Current Station
Personal Weather Station
Location: San Diego, CA
Elevation: 10 ft
Nearby Weather Stations

Elev 10 ft 32.72 °N, 117.17 °W | Updated 2 seconds ago

Mostly Cloudy
Mostly Cloudy
66.6 °F
Feels Like 66.6 °F
N
0.2
Wind Variable Wind from WNW
Gusts 3.4 mph

Today
High -- | Low -- °F
--% Chance of Precip.
Yesterday
High -- | Low -- °F
Precip. -- in
7:06 AM 5:57 PM
Waxing Gibbous, 64% visible
Pressure 29.91 in
Visibility 10.0 miles
Clouds Scattered Clouds 2500 ft
Mostly Cloudy 5000 ft
Dew Point 58 °F
Humidity 75%
Rainfall 0.00 in
Snow Depth Not available.
UV 0 out of 12
Pollen 2.70 out of 12
Air Quality Not available.
Flu Activity Not available.
METAR KSAN 010751Z 20008KT 10SM SCT025 BKN050 20/13 A2990 RMK AO2 SLP126 T02000128 402220194

More Conditions Fewer Conditions

Pressure 29.91 in
Visibility 10.0 miles
Clouds Scattered Clouds 2500 ft
Mostly Cloudy 5000 ft
Dew Point 58 °F
Humidity 75%
Rainfall 0.00 in
Snow Depth Not available.
UV 0 out of 12
Pollen 2.70 out of 12
Air Quality Not available.
Flu Activity Not available.
METAR KSAN 010751Z 20008KT 10SM SCT025 BKN050 20/13 A2990 RMK AO2 SLP126 T02000128 402220194

More Conditions Fewer Conditions

10-Day Weather Forecast

Almanac

Astronomy

Nov. 01, 2014 Rise Set
Actual Time
Civil Twilight
Nautical Twilight
Astronomical Twilight
Moon
Length of Visible Light
Length of Day
Tomorrow will be .
, % of the Moon is Illuminated

Today's Extremes

State Highs State Lows

Community

WunderPhotos

Upload Photos

1,766,866 photos uploaded!

WunderBlogs® & News

Nearby

Air Quality

  Air Quality AQ Index Pollutant
Not available.

Snow Depth

Station Depth Elevation

Earthquake Activity

City Distance Mag. Time & Date
Minimum magnitude displayed is 2.5.

Coastal Water Temperatures

Place Temperature

Nearby Weather Stations